Time;durP1;ratioP1;P1;durP2;ratioP2;P2;SDS_P1;SDS_P2;PMS_P1;PMS_P2;Temp;Humidity;BMP_temperature;BMP_pressure;BME280_temperature;BME280_humidity;BME280_pressure;Samples;Min_cycle;Max_cycle;Signal;HPM_P1;HPM_P2
2022/05/17 00:02:33;;;;;;;14.70;7.00;;;;;;;14.99;96.18;101211.50;5979537;28;20051;-65
2022/05/17 00:05:28;;;;;;;14.97;7.37;;;;;;;14.98;96.33;101205.31;5980807;28;20039;-67
2022/05/17 00:08:24;;;;;;;14.60;6.97;;;;;;;14.90;96.30;101202.59;5981608;28;20019;-65
2022/05/17 00:11:19;;;;;;;13.70;6.68;;;;;;;14.80;96.85;101212.59;5978344;28;20114;-66
2022/05/17 00:14:15;;;;;;;14.13;6.50;;;;;;;14.76;96.67;101213.91;5976640;28;20119;-67
2022/05/17 00:17:11;;;;;;;14.00;6.32;;;;;;;14.76;97.50;101221.91;5977444;28;20062;-66
2022/05/17 00:20:07;;;;;;;13.03;6.40;;;;;;;14.74;97.26;101216.75;5978598;28;20040;-67
2022/05/17 00:23:02;;;;;;;13.93;6.72;;;;;;;14.76;97.29;101220.06;5980865;28;20027;-66
2022/05/17 00:25:58;;;;;;;15.10;7.27;;;;;;;14.76;97.25;101227.25;5980114;28;20558;-67
2022/05/17 00:28:53;;;;;;;14.03;8.10;;;;;;;14.69;97.25;101215.53;5976844;29;20650;-67
2022/05/17 00:31:48;;;;;;;16.83;7.70;;;;;;;14.76;97.77;101214.75;5976583;28;20090;-66
2022/05/17 00:34:46;;;;;;;20.73;7.90;;;;;;;14.81;97.51;101217.75;5982238;28;20089;-67
2022/05/17 00:37:42;;;;;;;17.40;8.18;;;;;;;14.72;97.17;101209.88;5971959;28;20043;-65
2022/05/17 00:40:37;;;;;;;21.00;9.10;;;;;;;14.74;97.67;101214.06;5973942;28;20036;-65
2022/05/17 00:46:55;;;;;;;20.17;10.07;;;;;;;14.81;97.62;101214.28;5980467;28;20482;-65
2022/05/17 00:50:06;;;;;;;18.88;10.02;;;;;;;14.81;97.11;101223.09;5979516;28;20043;-66
2022/05/17 00:53:05;;;;;;;24.00;10.27;;;;;;;14.81;97.56;101219.63;5977903;28;20041;-67
2022/05/17 00:56:04;;;;;;;23.08;10.15;;;;;;;14.86;97.53;101222.63;5977717;29;20035;-66
2022/05/17 00:59:00;;;;;;;23.00;10.15;;;;;;;14.73;97.38;101207.03;5980389;29;20035;-67
2022/05/17 01:01:55;;;;;;;21.73;9.57;;;;;;;14.73;97.94;101216.91;5970335;28;20099;-65
2022/05/17 01:04:51;;;;;;;29.00;12.87;;;;;;;14.77;97.76;101224.44;5980277;28;20556;-67
2022/05/17 01:07:51;;;;;;;26.67;11.60;;;;;;;14.80;97.33;101220.59;5993263;28;20039;-65
2022/05/17 01:10:46;;;;;;;31.35;14.18;;;;;;;14.77;97.45;101207.56;5967075;29;20024;-65
2022/05/17 01:16:56;;;;;;;24.80;12.38;;;;;;;14.77;97.51;101207.56;5973445;29;20759;-67
2022/05/17 01:19:51;;;;;;;29.48;13.20;;;;;;;14.81;97.64;101214.28;5973692;28;20031;-67
2022/05/17 01:23:30;;;;;;;27.75;12.55;;;;;;;14.86;98.06;101223.47;5966925;29;20051;-66
2022/05/17 01:26:29;;;;;;;27.65;13.05;;;;;;;14.87;97.79;101214.44;5970620;28;20388;-66
2022/05/17 01:29:24;;;;;;;33.58;13.25;;;;;;;14.92;97.87;101211.28;5978933;28;20039;-66
2022/05/17 01:32:19;;;;;;;27.83;12.63;;;;;;;14.97;97.95;101202.81;5965879;29;20103;-66
2022/05/17 01:35:15;;;;;;;27.13;13.80;;;;;;;14.96;98.14;101198.44;5973874;29;20275;-67
2022/05/17 01:38:11;;;;;;;28.08;13.15;;;;;;;14.99;97.99;101196.31;5967197;28;20134;-66
2022/05/17 01:41:06;;;;;;;28.38;13.90;;;;;;;14.98;97.69;101204.47;5978208;28;20071;-67
2022/05/17 01:44:02;;;;;;;28.13;13.60;;;;;;;15.05;98.02;101206.34;5980539;28;20042;-67
2022/05/17 01:46:57;;;;;;;28.85;13.52;;;;;;;15.09;97.95;101206.84;5978676;28;20042;-66
2022/05/17 01:49:53;;;;;;;27.35;13.50;;;;;;;15.06;97.56;101204.47;5979228;29;20035;-67
2022/05/17 01:52:48;;;;;;;29.17;13.13;;;;;;;15.01;97.78;101194.28;5975613;28;20035;-67
2022/05/17 01:55:43;;;;;;;29.30;13.80;;;;;;;15.01;97.77;101210.31;5975634;29;20558;-67
2022/05/17 01:58:39;;;;;;;29.70;13.47;;;;;;;14.90;97.70;101200.78;5978087;28;20031;-66
2022/05/17 02:01:34;;;;;;;28.57;14.93;;;;;;;14.82;97.44;101197.25;5975697;28;20555;-67
2022/05/17 02:04:30;;;;;;;30.50;13.00;;;;;;;14.73;98.03;101198.22;5978293;29;20478;-67
2022/05/17 02:07:25;;;;;;;33.40;15.10;;;;;;;14.75;97.68;101205.06;5971219;28;20283;-66
2022/05/17 02:10:25;;;;;;;32.63;15.23;;;;;;;14.61;98.08;101202.16;5976775;28;20151;-67
2022/05/17 02:13:20;;;;;;;32.75;15.77;;;;;;;14.57;98.10;101198.13;5966707;28;20071;-67
2022/05/17 02:16:15;;;;;;;33.80;16.77;;;;;;;14.45;98.24;101191.41;5978052;28;20554;-66
2022/05/17 02:19:11;;;;;;;34.00;16.40;;;;;;;14.39;98.64;101197.38;5979038;28;20035;-67
2022/05/17 02:22:06;;;;;;;36.37;16.63;;;;;;;14.38;98.94;101195.72;5977603;28;20028;-67
2022/05/17 02:25:02;;;;;;;36.75;16.90;;;;;;;14.32;98.61;101208.69;5970046;29;20031;-66
2022/05/17 02:27:57;;;;;;;34.88;17.38;;;;;;;14.28;99.17;101209.13;5974177;28;20031;-67
2022/05/17 02:30:53;;;;;;;34.80;17.40;;;;;;;14.16;99.50;101199.69;5964442;28;20035;-67
2022/05/17 02:33:48;;;;;;;32.80;16.30;;;;;;;14.17;99.12;101206.72;5976388;28;20027;-66
2022/05/17 02:36:44;;;;;;;36.70;16.40;;;;;;;14.11;99.54;101205.50;5971733;28;20078;-66
2022/05/17 02:39:39;;;;;;;35.58;16.63;;;;;;;14.05;99.75;101200.00;5974943;28;20027;-67
2022/05/17 02:42:35;;;;;;;36.97;16.13;;;;;;;13.98;99.72;101196.25;5970108;28;20042;-66
2022/05/17 02:45:30;;;;;;;41.80;17.97;;;;;;;13.87;99.86;101197.34;5976612;28;20403;-67
2022/05/17 02:48:26;;;;;;;34.42;15.98;;;;;;;13.91;100.00;101204.06;5975505;28;20035;-66
2022/05/17 02:51:21;;;;;;;37.47;16.57;;;;;;;14.01;100.00;101202.13;5977016;28;20073;-68
2022/05/17 02:54:16;;;;;;;38.53;16.83;;;;;;;14.02;100.00;101210.97;5975217;28;20035;-67
2022/05/17 02:57:12;;;;;;;35.13;15.70;;;;;;;13.88;100.00;101199.03;5977582;28;20352;-66
2022/05/17 03:00:11;;;;;;;35.77;16.17;;;;;;;13.93;100.00;101215.41;5978834;28;20491;-67
2022/05/17 03:03:08;;;;;;;34.47;15.73;;;;;;;13.83;100.00;101214.66;5972287;28;20122;-66
2022/05/17 03:06:04;;;;;;;37.65;16.63;;;;;;;13.79;100.00;101212.44;5978139;28;20082;-66
2022/05/17 03:09:00;;;;;;;35.78;16.80;;;;;;;13.78;100.00;101222.25;5969776;28;20035;-67
2022/05/17 03:11:55;;;;;;;35.40;16.03;;;;;;;13.80;100.00;101222.97;5970432;28;20035;-65
2022/05/17 03:14:50;;;;;;;36.80;15.83;;;;;;;13.73;100.00;101235.22;5977238;29;20035;-66
2022/05/17 03:17:46;;;;;;;31.47;15.50;;;;;;;13.64;100.00;101233.50;5978923;28;20061;-67
2022/05/17 03:20:41;;;;;;;35.03;16.25;;;;;;;13.58;100.00;101239.44;5966074;28;20040;-66
2022/05/17 03:23:36;;;;;;;31.80;15.70;;;;;;;13.63;100.00;101235.31;5976116;28;20122;-66
2022/05/17 03:26:32;;;;;;;31.73;16.93;;;;;;;13.54;100.00;101244.22;5960116;29;20379;-67
2022/05/17 03:29:28;;;;;;;33.40;15.32;;;;;;;13.60;100.00;101256.09;5961656;28;20267;-66
2022/05/17 03:32:23;;;;;;;29.90;15.40;;;;;;;13.64;100.00;101260.94;5973306;28;20031;-67
2022/05/17 03:35:19;;;;;;;30.97;15.87;;;;;;;13.64;100.00;101254.81;6000609;28;20479;-66
2022/05/17 03:38:14;;;;;;;30.95;15.50;;;;;;;13.65;100.00;101261.81;5983668;28;20042;-66
2022/05/17 03:41:10;;;;;;;35.13;16.93;;;;;;;13.73;100.00;101253.88;5982627;28;20046;-66
2022/05/17 03:44:05;;;;;;;33.50;16.23;;;;;;;13.98;100.00;101258.44;5983447;28;20031;-67
2022/05/17 03:47:03;;;;;;;35.63;16.55;;;;;;;14.00;100.00;101260.94;5983244;28;20035;-67
2022/05/17 03:49:58;;;;;;;32.25;15.57;;;;;;;14.17;100.00;101262.75;5982974;28;20463;-67
2022/05/17 03:52:54;;;;;;;34.88;17.30;;;;;;;14.16;100.00;101269.06;5983660;28;20102;-66
2022/05/17 03:55:49;;;;;;;37.25;17.38;;;;;;;14.21;100.00;101270.25;5983071;28;20039;-66
2022/05/17 03:58:44;;;;;;;34.60;15.77;;;;;;;14.32;100.00;101271.06;5990009;28;20031;-66
2022/05/17 04:01:40;;;;;;;31.20;14.80;;;;;;;14.43;100.00;101273.47;5986011;28;20041;-66
2022/05/17 04:04:35;;;;;;;33.13;16.77;;;;;;;14.60;100.00;101286.75;5972227;28;20039;-67
2022/05/17 04:07:30;;;;;;;31.83;15.20;;;;;;;14.60;100.00;101285.91;5983587;28;20031;-67
2022/05/17 04:10:25;;;;;;;35.43;16.53;;;;;;;14.72;100.00;101280.16;5983450;28;20130;-67
2022/05/17 04:13:21;;;;;;;28.73;13.80;;;;;;;14.90;100.00;101277.38;5987112;28;20035;-67
2022/05/17 04:16:16;;;;;;;28.07;13.13;;;;;;;15.05;100.00;101286.47;5983727;28;20042;-66
2022/05/17 04:19:15;;;;;;;30.27;13.38;;;;;;;15.09;99.68;101281.63;5982650;28;20327;-67
2022/05/17 04:22:11;;;;;;;31.70;14.30;;;;;;;15.03;99.34;101282.31;5981806;28;20139;-68
2022/05/17 04:25:07;;;;;;;24.20;13.93;;;;;;;15.12;98.77;101287.50;5982826;28;20035;-66
2022/05/17 04:28:02;;;;;;;28.05;13.77;;;;;;;15.11;98.61;101285.00;5983315;28;20090;-67
2022/05/17 04:30:57;;;;;;;24.70;12.77;;;;;;;15.16;97.62;101288.03;5981605;28;20046;-66
2022/05/17 04:33:53;;;;;;;24.07;12.70;;;;;;;15.10;97.90;101286.84;5985701;28;20039;-68
2022/05/17 04:36:48;;;;;;;29.77;13.23;;;;;;;15.23;97.25;101297.91;5982193;28;20032;-68
2022/05/17 04:39:43;;;;;;;26.05;13.18;;;;;;;15.16;97.09;101293.38;5983374;28;20066;-67
2022/05/17 04:42:40;;;;;;;24.50;12.77;;;;;;;15.22;96.61;101285.53;5981624;28;20063;-67
2022/05/17 04:45:36;;;;;;;27.83;14.07;;;;;;;15.30;96.52;101306.13;5993860;28;20027;-67
2022/05/17 04:48:32;;;;;;;26.77;12.43;;;;;;;15.25;96.36;101305.72;5983135;28;20106;-67
2022/05/17 04:51:27;;;;;;;26.47;14.07;;;;;;;15.35;96.33;101299.28;5981952;28;20039;-67
2022/05/17 04:54:22;;;;;;;24.97;12.43;;;;;;;15.40;96.33;101298.78;5982088;28;20203;-68
2022/05/17 04:57:18;;;;;;;27.40;12.52;;;;;;;15.39;95.51;101305.97;5984808;28;20283;-66
2022/05/17 05:00:17;;;;;;;24.15;13.00;;;;;;;15.50;95.20;101307.53;5980925;28;20039;-65
2022/05/17 05:03:14;;;;;;;25.58;12.73;;;;;;;15.37;94.73;101313.31;5980841;28;20039;-67
2022/05/17 05:06:09;;;;;;;25.20;13.32;;;;;;;15.29;94.71;101305.28;5984591;28;20848;-66
2022/05/17 05:09:04;;;;;;;23.00;12.17;;;;;;;15.36;95.26;101311.63;5994382;28;20046;-67
2022/05/17 05:12:00;;;;;;;21.27;12.00;;;;;;;15.39;95.09;101319.31;5982459;28;20074;-66
2022/05/17 05:14:55;;;;;;;29.37;11.93;;;;;;;15.48;94.07;101315.72;5981250;28;20333;-67
2022/05/17 05:17:50;;;;;;;20.53;11.23;;;;;;;15.50;94.35;101323.56;5981842;28;20886;-66
2022/05/17 05:20:46;;;;;;;25.27;11.70;;;;;;;15.40;94.10;101320.16;5981542;28;20043;-65
2022/05/17 05:23:42;;;;;;;23.13;11.13;;;;;;;15.32;93.41;101321.00;5984407;28;20285;-66
2022/05/17 05:26:38;;;;;;;23.23;11.50;;;;;;;15.24;93.77;101323.63;5981428;28;20102;-66
2022/05/17 05:29:34;;;;;;;21.27;11.07;;;;;;;15.13;93.64;101325.75;5994211;28;20121;-67
2022/05/17 05:32:29;;;;;;;20.45;11.68;;;;;;;15.09;94.40;101337.72;5983211;28;20400;-66
2022/05/17 05:35:25;;;;;;;27.97;11.67;;;;;;;15.13;94.62;101342.63;5975165;28;20402;-67
2022/05/17 05:38:20;;;;;;;29.67;12.98;;;;;;;15.27;94.42;101339.31;5981885;28;20404;-66
2022/05/17 05:41:17;;;;;;;26.23;11.70;;;;;;;15.49;94.43;101344.09;5980095;28;20039;-65
2022/05/17 05:44:12;;;;;;;19.52;11.05;;;;;;;15.71;93.18;101347.19;5985580;28;20493;-66
2022/05/17 05:47:07;;;;;;;21.00;10.13;;;;;;;15.74;92.99;101344.16;5983578;28;20094;-66
2022/05/17 05:50:03;;;;;;;25.90;11.93;;;;;;;16.05;92.37;101348.75;5977440;28;20765;-66
2022/05/17 05:53:01;;;;;;;22.63;11.23;;;;;;;16.37;91.21;101355.09;5981149;28;20307;-66
2022/05/17 05:56:01;;;;;;;21.40;10.60;;;;;;;16.41;90.05;101353.78;5979760;28;20036;-67
2022/05/17 05:58:57;;;;;;;25.58;10.93;;;;;;;16.64;89.43;101358.31;5980373;28;20035;-67
2022/05/17 06:01:52;;;;;;;25.47;10.47;;;;;;;16.98;87.04;101354.56;5979884;28;20031;-66
2022/05/17 06:04:48;;;;;;;20.53;9.97;;;;;;;17.12;86.80;101351.19;5979687;28;20447;-67
2022/05/17 06:07:43;;;;;;;18.73;10.05;;;;;;;17.26;85.63;101347.75;5979912;28;20027;-66
2022/05/17 06:10:41;;;;;;;18.83;8.87;;;;;;;17.20;84.72;101351.97;5979242;28;20035;-67
2022/05/17 06:13:36;;;;;;;16.55;9.10;;;;;;;17.50;84.21;101358.38;5988440;28;20083;-67
2022/05/17 06:16:32;;;;;;;17.05;8.75;;;;;;;17.64;82.23;101363.03;5982152;28;20059;-66
2022/05/17 06:19:27;;;;;;;17.05;9.80;;;;;;;17.35;82.63;101362.81;5980290;28;20039;-66
2022/05/17 06:22:24;;;;;;;16.80;8.65;;;;;;;17.90;81.92;101372.59;5985014;28;20042;-66
2022/05/17 06:25:19;;;;;;;17.75;8.73;;;;;;;18.39;79.14;101363.19;5988540;28;20368;-66
2022/05/17 06:28:15;;;;;;;16.63;8.17;;;;;;;18.28;79.52;101355.56;5979924;28;20035;-65
2022/05/17 06:31:10;;;;;;;17.53;7.90;;;;;;;18.78;77.09;101358.47;5979297;28;20035;-66
2022/05/17 06:34:05;;;;;;;18.27;9.00;;;;;;;18.61;76.34;101356.97;5980740;28;20282;-66
2022/05/17 06:37:00;;;;;;;19.07;8.43;;;;;;;18.84;76.40;101357.75;5980638;28;20078;-67
2022/05/17 06:39:56;;;;;;;18.13;8.97;;;;;;;18.45;77.01;101357.91;5979516;28;20038;-66
2022/05/17 06:42:51;;;;;;;17.23;8.30;;;;;;;19.02;76.24;101355.53;5979492;28;20382;-65
2022/05/17 06:45:48;;;;;;;16.98;8.13;;;;;;;19.34;75.12;101353.47;5980136;28;20074;-67
2022/05/17 06:48:43;;;;;;;21.05;8.65;;;;;;;19.56;73.90;101349.88;5983299;28;20537;-67
2022/05/17 06:51:40;;;;;;;16.27;8.10;;;;;;;19.85;72.18;101352.47;5979712;28;20047;-66
2022/05/17 06:54:36;;;;;;;21.60;8.45;;;;;;;19.33;74.09;101358.03;5986117;28;20043;-66
2022/05/17 06:57:31;;;;;;;15.63;8.38;;;;;;;19.96;72.45;101367.28;5979053;28;20466;-65
2022/05/17 07:00:26;;;;;;;20.07;8.40;;;;;;;20.32;71.16;101353.78;5977749;28;20039;-67
2022/05/17 07:03:22;;;;;;;16.38;7.68;;;;;;;20.21;71.00;101373.97;5985055;28;20038;-66
2022/05/17 07:06:18;;;;;;;16.10;8.07;;;;;;;20.30;70.43;101372.03;5979153;28;20080;-66
2022/05/17 07:09:13;;;;;;;16.60;7.68;;;;;;;20.43;70.20;101369.44;5978974;28;20035;-67
2022/05/17 07:15:22;;;;;;;17.08;7.60;;;;;;;20.96;67.76;101367.97;5979034;29;20039;-65
2022/05/17 07:18:21;;;;;;;17.73;7.73;;;;;;;20.49;69.36;101356.00;5979186;28;20035;-67
2022/05/17 07:21:16;;;;;;;17.55;7.07;;;;;;;20.88;68.00;101360.88;5977434;28;20099;-67
2022/05/17 07:24:11;;;;;;;14.67;7.47;;;;;;;21.19;66.12;101357.78;5979177;28;20467;-66
2022/05/17 07:27:08;;;;;;;18.73;8.00;;;;;;;21.12;67.72;101360.41;5979025;28;20289;-66
2022/05/17 07:30:04;;;;;;;16.05;7.88;;;;;;;21.30;66.36;101366.16;5978094;28;20055;-66
2022/05/17 07:33:00;;;;;;;22.98;8.18;;;;;;;21.56;66.44;101369.97;5979733;28;20399;-65
2022/05/17 07:35:55;;;;;;;17.53;7.27;;;;;;;21.64;64.10;101372.50;5977316;28;20055;-66
2022/05/17 07:38:50;;;;;;;15.17;7.50;;;;;;;21.50;65.04;101376.22;5978864;28;20038;-66
2022/05/17 07:41:47;;;;;;;17.37;7.97;;;;;;;21.18;67.06;101370.44;5978235;28;20043;-65
2022/05/17 07:44:42;;;;;;;16.90;8.45;;;;;;;21.39;65.58;101374.88;5993656;28;20043;-66
2022/05/17 07:47:37;;;;;;;14.53;6.80;;;;;;;21.53;66.00;101387.41;5981208;28;20481;-65
2022/05/17 07:50:33;;;;;;;20.90;7.53;;;;;;;21.46;65.51;101369.53;5977796;28;20498;-66
2022/05/17 07:53:28;;;;;;;15.63;6.85;;;;;;;21.72;64.32;101380.41;5981917;28;20126;-67
2022/05/17 07:56:23;;;;;;;17.30;6.77;;;;;;;21.91;64.12;101379.69;5978692;28;20041;-65
2022/05/17 07:59:19;;;;;;;12.10;6.43;;;;;;;22.21;63.71;101377.47;5981682;28;20639;-65
2022/05/17 08:02:14;;;;;;;13.27;6.75;;;;;;;22.09;62.63;101371.84;5978375;28;20071;-66
2022/05/17 08:05:10;;;;;;;17.57;6.83;;;;;;;21.98;62.47;101375.16;5978582;28;20039;-65
2022/05/17 08:08:05;;;;;;;13.00;6.50;;;;;;;22.18;62.03;101381.41;5981249;28;20023;-65
2022/05/17 08:11:01;;;;;;;9.52;5.57;;;;;;;22.62;61.89;101366.47;5979762;28;20522;-67
2022/05/17 08:13:56;;;;;;;13.83;6.00;;;;;;;23.19;60.17;101368.47;5990202;28;20043;-66
2022/05/17 08:16:52;;;;;;;12.50;4.90;;;;;;;22.45;60.55;101385.81;5982945;28;20027;-65
2022/05/17 08:19:47;;;;;;;10.30;5.13;;;;;;;22.00;60.87;101373.06;5982678;28;20451;-66
2022/05/17 08:22:44;;;;;;;13.60;5.13;;;;;;;21.70;62.21;101382.50;5986923;28;20035;-66
2022/05/17 08:28:55;;;;;;;14.40;5.28;;;;;;;22.16;62.22;101372.69;5983988;28;20027;-66
2022/05/17 08:35:05;;;;;;;14.07;5.28;;;;;;;22.68;60.58;101376.47;5982364;29;20031;-66
2022/05/17 08:38:00;;;;;;;18.60;6.20;;;;;;;22.65;58.12;101376.91;5982343;28;20070;-66
2022/05/17 08:40:58;;;;;;;13.38;5.50;;;;;;;22.58;59.71;101382.28;5981296;28;20326;-66
2022/05/17 08:43:53;;;;;;;14.93;5.53;;;;;;;22.53;59.94;101385.59;5982922;28;20082;-67
2022/05/17 08:47:01;;;;;;;15.67;6.20;;;;;;;22.18;60.72;101386.81;5981721;28;20051;-66
2022/05/17 08:50:02;;;;;;;12.73;5.55;;;;;;;22.06;61.54;101395.72;5984907;28;20035;-66
2022/05/17 08:52:58;;;;;;;15.13;5.13;;;;;;;22.37;60.00;101385.16;5993078;28;20071;-67
2022/05/17 08:55:53;;;;;;;16.42;5.53;;;;;;;22.44;59.51;101381.47;5979372;29;20438;-65
2022/05/17 08:58:50;;;;;;;12.23;3.70;;;;;;;22.72;60.12;101386.66;5981888;28;20494;-66
2022/05/17 09:01:50;;;;;;;13.00;4.47;;;;;;;22.78;58.48;101393.09;5979807;28;20290;-67
2022/05/17 09:05:29;;;;;;;17.27;5.13;;;;;;;23.21;57.30;101380.75;5980233;28;20479;-67
2022/05/17 09:08:35;;;;;;;13.60;4.70;;;;;;;23.61;57.13;101395.88;5990071;28;20027;-67
2022/05/17 09:11:37;;;;;;;16.75;4.72;;;;;;;23.36;57.46;101400.31;5981829;28;20412;-67
2022/05/17 09:14:36;;;;;;;9.15;3.17;;;;;;;23.02;55.95;101395.16;5985324;28;20135;-66
2022/05/17 09:17:31;;;;;;;8.55;3.63;;;;;;;23.25;56.83;101390.13;5984370;28;20047;-66
2022/05/17 09:20:33;;;;;;;10.75;3.30;;;;;;;23.21;56.93;101382.66;5983760;28;20158;-67
2022/05/17 09:23:29;;;;;;;10.55;3.67;;;;;;;22.77;58.75;101392.31;5981358;28;20039;-67
2022/05/17 09:26:24;;;;;;;8.90;3.17;;;;;;;22.49;58.07;101397.88;5981256;28;20042;-67
2022/05/17 09:29:22;;;;;;;10.20;2.92;;;;;;;22.16;59.46;101405.09;5992191;28;20034;-66
2022/05/17 09:32:36;;;;;;;10.63;3.40;;;;;;;22.69;58.45;101399.78;5983403;28;20435;-66
2022/05/17 09:35:40;;;;;;;10.68;2.90;;;;;;;23.23;56.61;101403.06;5995568;28;20106;-67
2022/05/17 09:38:38;;;;;;;6.65;2.63;;;;;;;22.93;54.08;101404.56;5981070;28;20530;-67
2022/05/17 09:41:35;;;;;;;10.63;3.10;;;;;;;22.66;55.56;101411.03;5988607;28;20031;-66
2022/05/17 09:44:33;;;;;;;9.20;3.45;;;;;;;22.64;55.54;101413.13;5981620;28;20046;-66
2022/05/17 09:47:30;;;;;;;6.95;3.20;;;;;;;22.92;56.21;101400.19;5978784;28;20027;-67
2022/05/17 09:53:49;;;;;;;10.40;2.63;;;;;;;21.97;57.69;101421.25;5980791;28;20117;-66
2022/05/17 09:56:45;;;;;;;10.40;3.08;;;;;;;22.04;58.98;101411.31;5984725;28;20463;-68
2022/05/17 09:59:41;;;;;;;9.30;2.70;;;;;;;22.53;56.88;101417.22;5985056;28;20102;-67
2022/05/17 10:02:54;;;;;;;6.55;2.40;;;;;;;22.98;54.66;101426.41;5979854;28;20034;-66
2022/05/17 10:05:56;;;;;;;10.57;2.47;;;;;;;23.22;54.60;101423.03;5978252;28;20043;-66
2022/05/17 10:09:05;;;;;;;6.88;2.30;;;;;;;23.73;53.23;101414.19;5979928;28;20062;-68
2022/05/17 10:12:04;;;;;;;4.97;1.60;;;;;;;24.18;50.52;101413.13;5983777;28;20047;-66
2022/05/17 10:15:07;;;;;;;6.40;1.80;;;;;;;23.96;49.65;101409.03;5984498;28;20039;-65
2022/05/17 10:18:35;;;;;;;7.13;1.80;;;;;;;23.85;50.67;101413.28;5979889;28;20114;-67
2022/05/17 10:21:48;;;;;;;7.18;2.03;;;;;;;23.57;51.24;101405.47;5977750;28;20059;-67
2022/05/17 10:24:47;;;;;;;6.25;1.95;;;;;;;23.74;52.60;101413.13;5966906;28;20030;-66
2022/05/17 10:28:13;;;;;;;8.52;2.08;;;;;;;23.23;51.05;101413.88;5982011;28;20030;-67
2022/05/17 10:31:19;;;;;;;;;;;;;;;23.37;53.21;101420.94;5983757;28;20043;-66
2022/05/17 10:34:24;;;;;;;5.57;1.73;;;;;;;23.53;49.08;101406.97;5979702;28;19920;-66
2022/05/17 10:37:22;;;;;;;5.80;1.58;;;;;;;23.51;49.75;101406.31;5987324;28;20035;-65
2022/05/17 10:40:43;;;;;;;4.03;1.60;;;;;;;23.61;48.80;101395.88;5977971;28;20551;-68
2022/05/17 10:43:44;;;;;;;4.15;1.27;;;;;;;24.35;44.92;101397.16;5978855;28;20039;-67
2022/05/17 10:46:47;;;;;;;4.57;1.50;;;;;;;24.47;46.27;101395.41;5980536;28;20491;-66
2022/05/17 10:49:53;;;;;;;5.55;1.65;;;;;;;24.05;46.06;101397.72;5978472;28;20498;-66
2022/05/17 10:53:06;;;;;;;5.20;1.30;;;;;;;24.47;46.85;101390.81;5990216;28;20043;-66
2022/05/17 10:56:13;;;;;;;6.43;1.42;;;;;;;24.83;43.98;101401.81;5979230;28;20118;-67
2022/05/17 10:59:40;;;;;;;3.33;1.17;;;;;;;24.68;44.77;101398.56;5980033;28;20038;-67
2022/05/17 11:03:07;;;;;;;4.32;1.10;;;;;;;24.62;44.57;101388.59;5979110;28;20042;-67
2022/05/17 11:06:28;;;;;;;3.47;1.20;;;;;;;25.24;43.02;101384.91;5982465;28;20035;-66
2022/05/17 11:09:48;;;;;;;4.60;1.27;;;;;;;24.77;42.90;101396.41;5998109;28;20039;-67
2022/05/17 11:12:49;;;;;;;5.05;1.20;;;;;;;24.54;43.57;101388.84;5991298;28;20475;-67
2022/05/17 11:15:49;;;;;;;6.10;1.50;;;;;;;24.62;42.18;101388.59;5986592;28;20043;-68
2022/05/17 11:19:04;;;;;;;4.88;1.30;;;;;;;24.62;42.13;101382.34;5990973;28;20399;-67
2022/05/17 11:22:05;;;;;;;2.78;1.30;;;;;;;24.82;43.82;101377.59;5969981;29;20108;-67
2022/05/17 11:25:40;;;;;;;5.55;1.67;;;;;;;24.74;43.96;101383.28;5979129;28;20105;-66
2022/05/17 11:29:03;;;;;;;4.95;1.45;;;;;;;24.68;43.95;101378.72;5979221;28;20055;-66
2022/05/17 11:32:01;;;;;;;4.30;1.70;;;;;;;24.43;43.85;101373.34;5975913;28;20039;-68
2022/05/17 11:34:59;;;;;;;5.75;1.70;;;;;;;24.79;43.11;101378.03;5964303;28;20099;-68
2022/05/17 11:37:55;;;;;;;5.78;1.52;;;;;;;25.01;43.59;101370.31;5981052;28;20070;-68
2022/05/17 11:40:53;;;;;;;5.43;1.50;;;;;;;25.10;42.88;101377.09;5976431;28;20061;-66
2022/05/17 11:44:11;;;;;;;6.30;1.52;;;;;;;24.99;42.13;101372.41;5978457;28;20054;-67
2022/05/17 11:47:30;;;;;;;5.00;1.73;;;;;;;25.32;42.85;101373.72;5981720;28;20471;-67
2022/05/17 11:50:28;;;;;;;5.45;1.50;;;;;;;25.28;41.41;101371.69;5985376;28;20035;-68
2022/05/17 11:53:23;;;;;;;3.83;1.60;;;;;;;25.41;42.10;101371.56;5982816;28;20375;-66
2022/05/17 11:56:25;;;;;;;5.38;1.88;;;;;;;25.48;41.12;101371.47;5984196;28;20042;-68
2022/05/17 11:59:29;;;;;;;5.50;1.48;;;;;;;25.59;40.89;101374.28;5984431;28;20043;-67
2022/05/17 12:02:41;;;;;;;3.78;1.30;;;;;;;24.74;41.76;101364.28;5982148;28;20046;-68
2022/05/17 12:05:47;;;;;;;4.50;1.30;;;;;;;23.85;43.25;101379.94;5990700;28;20047;-67
2022/05/17 12:08:43;;;;;;;5.13;1.35;;;;;;;23.86;42.97;101362.63;5982251;28;20452;-67
2022/05/17 12:11:47;;;;;;;4.05;1.20;;;;;;;23.68;41.94;101364.16;5981842;28;20039;-66
2022/05/17 12:14:49;;;;;;;5.00;1.52;;;;;;;24.51;43.00;101366.78;5987600;28;20038;-67
2022/05/17 12:17:44;;;;;;;2.35;1.05;;;;;;;25.01;39.25;101354.00;5987964;28;20042;-67
2022/05/17 12:20:55;;;;;;;3.25;1.00;;;;;;;25.66;38.82;101353.25;5982300;28;20039;-67
2022/05/17 12:23:59;;;;;;;3.35;1.20;;;;;;;25.58;39.99;101361.72;5978041;28;20519;-67
2022/05/17 12:27:04;;;;;;;4.30;1.38;;;;;;;25.75;39.33;101360.06;5987565;28;20451;-67
2022/05/17 12:33:34;;;;;;;4.10;1.63;;;;;;;25.71;42.12;101350.69;5980912;28;20490;-66
2022/05/17 12:36:31;;;;;;;8.52;2.03;;;;;;;24.81;43.14;101349.63;5972327;28;20494;-66
2022/05/17 12:43:03;;;;;;;4.18;1.40;;;;;;;25.01;42.82;101343.16;5988071;28;20034;-67
2022/05/17 12:46:30;;;;;;;7.55;1.73;;;;;;;25.29;42.10;101340.75;5985054;28;20043;-67
2022/05/17 12:49:30;;;;;;;5.68;1.60;;;;;;;25.04;41.55;101342.72;5973064;28;20528;-67
2022/05/17 12:52:30;;;;;;;3.80;1.40;;;;;;;25.17;42.66;101343.41;5985619;28;20498;-68
2022/05/17 12:55:30;;;;;;;5.22;1.50;;;;;;;25.39;40.89;101343.75;5983407;28;20495;-66
2022/05/17 12:58:25;;;;;;;4.90;1.42;;;;;;;25.69;40.28;101341.94;5979566;28;20035;-68
2022/05/17 13:01:30;;;;;;;4.70;1.63;;;;;;;25.43;40.15;101340.38;5981816;28;20506;-67
2022/05/17 13:04:31;;;;;;;5.15;1.50;;;;;;;24.78;40.02;101343.81;5983246;28;20122;-67
2022/05/17 13:07:27;;;;;;;9.07;1.70;;;;;;;24.76;41.75;101333.16;5981654;28;20035;-68
2022/05/17 13:10:22;;;;;;;4.63;1.70;;;;;;;25.52;40.19;101330.03;5990504;28;20042;-68
2022/05/17 13:13:19;;;;;;;4.40;1.47;;;;;;;25.68;39.01;101329.44;5992236;28;20035;-68
2022/05/17 13:16:36;;;;;;;4.65;1.58;;;;;;;26.10;39.51;101324.81;5981637;28;20035;-69
2022/05/17 13:19:33;;;;;;;4.80;1.65;;;;;;;26.30;40.23;101333.53;5986077;28;20045;-68
2022/05/17 13:22:28;;;;;;;5.78;1.50;;;;;;;26.43;38.46;101329.75;5985300;28;20539;-67
2022/05/17 13:25:35;;;;;;;6.93;1.53;;;;;;;26.51;39.22;101330.25;5981613;28;20042;-66
2022/05/17 13:28:32;;;;;;;5.18;1.30;;;;;;;26.52;35.65;101318.31;5991835;28;20293;-68
2022/05/17 13:31:28;;;;;;;5.13;1.33;;;;;;;26.55;38.26;101330.59;5982065;28;20157;-68
2022/05/17 13:34:27;;;;;;;3.83;1.70;;;;;;;26.51;37.12;101323.97;5973141;28;20043;-67
2022/05/17 13:37:23;;;;;;;4.03;1.75;;;;;;;26.24;36.27;101317.31;5980774;28;20479;-68
2022/05/17 13:40:34;;;;;;;8.68;1.63;;;;;;;26.02;36.19;101323.28;5976099;29;20046;-67
2022/05/17 13:43:42;;;;;;;4.60;1.50;;;;;;;26.29;38.20;101331.03;5979683;28;20035;-67
2022/05/17 13:46:39;;;;;;;6.18;1.33;;;;;;;26.03;37.76;101326.81;5980466;28;20046;-68
2022/05/17 13:49:37;;;;;;;3.72;1.33;;;;;;;26.39;37.60;101320.44;5979519;28;20343;-68
2022/05/17 13:52:35;;;;;;;4.47;1.40;;;;;;;26.43;37.63;101332.47;5984917;28;20027;-67
2022/05/17 13:55:35;;;;;;;8.65;1.30;;;;;;;26.48;37.19;101322.53;5980335;28;20070;-67
2022/05/17 13:58:30;;;;;;;5.80;1.60;;;;;;;26.83;38.00;101328.00;5984126;28;20126;-68
2022/05/17 14:01:35;;;;;;;7.00;2.03;;;;;;;27.33;39.48;101324.75;5984217;28;20391;-67
2022/05/17 14:04:45;;;;;;;8.75;1.98;;;;;;;26.94;36.19;101319.00;5988009;28;20415;-67
2022/05/17 14:07:40;;;;;;;3.92;1.50;;;;;;;26.38;38.01;101324.19;5986838;28;20090;-67
2022/05/17 14:13:49;;;;;;;3.35;1.50;;;;;;;25.10;40.76;101325.53;5980595;28;20039;-68